createdAt,value
2019-02-16T00:02:08.518Z,0.80
2019-02-16T00:04:38.721Z,0.90
2019-02-16T00:07:08.936Z,0.80
2019-02-16T00:09:39.208Z,0.70
2019-02-16T00:12:09.424Z,0.80
2019-02-16T00:14:39.752Z,0.80
2019-02-16T00:17:09.932Z,0.80
2019-02-16T00:19:40.101Z,0.80
2019-02-16T00:22:10.294Z,0.80
2019-02-16T00:24:40.551Z,0.80
2019-02-16T00:27:10.778Z,0.80
2019-02-16T00:29:40.956Z,0.80
2019-02-16T00:32:11.234Z,0.80
2019-02-16T00:34:41.578Z,0.80
2019-02-16T00:37:11.782Z,0.90
2019-02-16T00:39:42.118Z,0.80
2019-02-16T00:42:12.258Z,0.90
2019-02-16T00:44:42.612Z,0.90
2019-02-16T00:47:12.920Z,0.87
2019-02-16T00:49:43.172Z,0.90
2019-02-16T00:52:13.482Z,0.90
2019-02-16T00:54:43.649Z,0.80
2019-02-16T00:57:13.980Z,0.80
2019-02-16T00:59:44.101Z,0.80
2019-02-16T01:02:14.365Z,0.90
2019-02-16T01:04:44.574Z,0.90
2019-02-16T01:07:14.853Z,0.90
2019-02-16T01:09:45.145Z,0.90
2019-02-16T01:12:15.362Z,0.83
2019-02-16T01:14:45.497Z,0.90
2019-02-16T01:17:15.740Z,0.90
2019-02-16T01:19:46.027Z,0.80
2019-02-16T01:22:16.194Z,0.90
2019-02-16T01:24:46.481Z,0.90
2019-02-16T01:27:16.725Z,0.80
2019-02-16T01:29:47.002Z,0.80
2019-02-16T01:32:17.194Z,0.90
2019-02-16T01:34:47.376Z,0.80
2019-02-16T01:37:17.531Z,0.90
2019-02-16T01:39:48.088Z,0.80
2019-02-16T01:42:18.342Z,0.90
2019-02-16T01:44:48.637Z,0.80
2019-02-16T01:47:18.919Z,0.90
2019-02-16T01:49:49.019Z,0.80
2019-02-16T01:52:19.321Z,0.80
2019-02-16T01:54:49.602Z,0.80
2019-02-16T01:57:19.819Z,0.80
2019-02-16T01:59:50.135Z,0.80
2019-02-16T02:02:20.413Z,0.87
2019-02-16T02:04:50.610Z,0.90
2019-02-16T02:07:20.893Z,0.90
2019-02-16T02:09:51.105Z,0.80
2019-02-16T02:12:21.525Z,0.87
2019-02-16T02:14:51.775Z,0.90
2019-02-16T02:17:21.965Z,0.80
2019-02-16T02:19:52.214Z,0.90
2019-02-16T02:22:22.401Z,0.90
2019-02-16T02:24:52.572Z,0.80
2019-02-16T02:27:23.011Z,0.80
2019-02-16T02:29:53.334Z,0.80
2019-02-16T02:32:23.641Z,0.90
2019-02-16T02:34:53.898Z,0.80
2019-02-16T02:37:24.075Z,0.80
2019-02-16T02:39:54.290Z,0.80
2019-02-16T02:42:24.527Z,0.80
2019-02-16T02:44:54.860Z,0.90
2019-02-16T02:47:25.110Z,0.90
2019-02-16T02:49:55.417Z,0.80
2019-02-16T02:52:25.673Z,0.80
2019-02-16T02:54:55.889Z,0.80
2019-02-16T02:57:26.058Z,0.90
2019-02-16T02:59:56.264Z,0.90
2019-02-16T03:02:26.463Z,0.90
2019-02-16T03:04:56.801Z,0.90
2019-02-16T03:07:27.088Z,0.80
2019-02-16T03:09:57.411Z,0.80
2019-02-16T03:12:27.664Z,0.80
2019-02-16T03:14:57.956Z,0.80
2019-02-16T03:17:28.167Z,0.90
2019-02-16T03:19:58.448Z,0.80
2019-02-16T03:23:05.390Z,0.90
2019-02-16T03:25:35.691Z,0.80
2019-02-16T03:28:45.502Z,0.90
2019-02-16T03:32:03.334Z,0.80
2019-02-16T03:34:38.594Z,0.90
2019-02-16T03:38:01.397Z,0.90
2019-02-16T03:40:31.694Z,0.83
2019-02-16T03:43:01.965Z,0.80
2019-02-16T03:45:32.229Z,0.90
2019-02-16T03:48:02.553Z,0.90
2019-02-16T03:50:32.869Z,0.70
2019-02-16T03:53:03.198Z,0.90
2019-02-16T03:55:33.399Z,0.80
2019-02-16T03:58:22.828Z,0.90
2019-02-16T04:00:52.978Z,0.80
2019-02-16T04:03:23.258Z,0.80
2019-02-16T04:05:53.522Z,0.80
2019-02-16T04:08:23.758Z,0.80
2019-02-16T04:10:54.054Z,0.80
2019-02-16T04:13:24.218Z,0.80
2019-02-16T04:15:54.497Z,0.90
2019-02-16T04:18:24.748Z,0.80
2019-02-16T04:20:55.089Z,0.90
2019-02-16T04:23:25.354Z,0.90
2019-02-16T04:25:55.674Z,0.87
2019-02-16T04:28:25.816Z,0.80
2019-02-16T04:30:56.038Z,0.80
2019-02-16T04:33:26.330Z,0.87
2019-02-16T04:35:56.526Z,0.80
2019-02-16T04:38:26.856Z,0.80
2019-02-16T04:40:56.979Z,0.87
2019-02-16T04:43:27.229Z,0.80
2019-02-16T04:45:57.398Z,0.80
2019-02-16T04:48:27.659Z,0.83
2019-02-16T04:50:57.948Z,0.80
2019-02-16T04:53:28.176Z,0.90
2019-02-16T04:55:58.293Z,0.80
2019-02-16T04:58:28.560Z,0.80
2019-02-16T05:00:58.745Z,0.80
2019-02-16T05:03:28.993Z,0.90
2019-02-16T05:05:59.884Z,0.80
2019-02-16T05:08:30.349Z,0.90
2019-02-16T05:11:00.562Z,0.80
2019-02-16T05:13:30.781Z,0.80
2019-02-16T05:16:00.987Z,0.80
2019-02-16T05:18:31.161Z,0.80
2019-02-16T05:21:01.311Z,0.80
2019-02-16T05:23:31.614Z,0.80
2019-02-16T05:26:01.902Z,0.80
2019-02-16T05:28:32.202Z,0.80
2019-02-16T05:31:02.418Z,0.80
2019-02-16T05:33:32.612Z,0.80
2019-02-16T05:36:02.875Z,0.90
2019-02-16T05:38:33.115Z,0.80
2019-02-16T05:41:03.407Z,0.90
2019-02-16T05:43:33.708Z,0.80
2019-02-16T05:46:03.964Z,0.80
2019-02-16T05:48:34.161Z,0.80
2019-02-16T05:51:04.455Z,0.80
2019-02-16T05:53:34.770Z,0.80
2019-02-16T05:56:04.961Z,0.90
2019-02-16T05:58:35.131Z,0.80
2019-02-16T06:01:05.291Z,0.80
2019-02-16T06:03:35.569Z,0.80
2019-02-16T06:06:05.811Z,0.90
2019-02-16T06:08:36.156Z,0.80
2019-02-16T06:11:06.488Z,0.80
2019-02-16T06:13:36.860Z,0.80
2019-02-16T06:16:07.114Z,0.80
2019-02-16T06:18:37.378Z,0.80
2019-02-16T06:21:07.658Z,0.80
2019-02-16T06:23:37.809Z,0.80
2019-02-16T06:26:08.113Z,0.80
2019-02-16T06:28:38.252Z,0.80
2019-02-16T06:31:08.487Z,0.80
2019-02-16T06:33:38.671Z,0.80
2019-02-16T06:36:17.929Z,0.90
2019-02-16T06:38:48.187Z,0.80
2019-02-16T06:41:18.418Z,0.90
2019-02-16T06:43:48.623Z,0.80
2019-02-16T06:46:18.891Z,0.80
2019-02-16T06:48:49.166Z,0.80
2019-02-16T06:51:19.385Z,0.90
2019-02-16T06:53:49.555Z,0.80
2019-02-16T06:56:33.043Z,0.80
2019-02-16T06:59:03.203Z,0.80
2019-02-16T07:01:33.425Z,0.80
2019-02-16T07:04:03.749Z,0.90
2019-02-16T07:06:33.931Z,0.90
2019-02-16T07:09:05.576Z,0.80
2019-02-16T07:11:35.733Z,0.80
2019-02-16T07:14:05.997Z,0.80
2019-02-16T07:16:58.028Z,0.83
2019-02-16T07:19:31.517Z,0.80
2019-02-16T07:22:01.745Z,0.80
2019-02-16T07:24:32.085Z,0.90
2019-02-16T07:27:02.331Z,0.80
2019-02-16T07:29:32.628Z,0.80
2019-02-16T07:32:02.952Z,0.87
2019-02-16T07:34:33.179Z,0.80
2019-02-16T07:37:03.448Z,0.90
2019-02-16T07:39:33.646Z,0.80
2019-02-16T07:42:03.916Z,0.80
2019-02-16T07:44:47.970Z,0.80
2019-02-16T07:47:43.421Z,0.90
2019-02-16T07:50:22.083Z,0.80
2019-02-16T07:53:14.106Z,0.80
2019-02-16T07:56:18.581Z,0.90
2019-02-16T07:59:10.621Z,0.80
2019-02-16T08:01:59.845Z,0.80
2019-02-16T08:04:55.969Z,0.80
2019-02-16T08:07:36.854Z,0.80
2019-02-16T08:10:28.955Z,0.80
2019-02-16T08:13:21.202Z,0.90
2019-02-16T08:15:58.284Z,0.80
2019-02-16T08:18:47.495Z,0.80
2019-02-16T08:21:52.000Z,0.90
2019-02-16T08:24:39.743Z,0.80
2019-02-16T08:27:22.224Z,0.90
2019-02-16T08:30:05.205Z,0.90
2019-02-16T08:33:12.876Z,0.80
2019-02-16T08:36:00.944Z,0.80
2019-02-16T08:38:53.017Z,0.80
2019-02-16T08:41:40.964Z,0.80
2019-02-16T08:44:19.489Z,0.80
2019-02-16T08:47:09.407Z,0.80
2019-02-16T08:49:52.633Z,0.80
2019-02-16T08:52:41.832Z,0.80
2019-02-16T08:55:20.118Z,0.80
2019-02-16T08:58:15.298Z,0.80
2019-02-16T09:00:52.731Z,0.80
2019-02-16T09:03:44.521Z,0.80
2019-02-16T09:06:36.370Z,0.80
2019-02-16T09:09:24.692Z,0.80
2019-02-16T09:12:02.934Z,0.80
2019-02-16T09:15:01.679Z,0.80
2019-02-16T09:17:51.761Z,0.80
2019-02-16T09:20:46.153Z,0.80
2019-02-16T09:23:38.330Z,0.80
2019-02-16T09:26:15.478Z,0.80
2019-02-16T09:29:04.738Z,0.80
2019-02-16T09:31:52.844Z,0.80
2019-02-16T09:34:42.085Z,0.80
2019-02-16T09:37:19.467Z,0.80
2019-02-16T09:40:17.794Z,0.80
2019-02-16T09:42:57.289Z,0.70
2019-02-16T09:45:34.186Z,0.80
2019-02-16T09:48:26.152Z,0.80
2019-02-16T09:51:18.565Z,0.70
2019-02-16T09:54:08.587Z,0.80
2019-02-16T09:57:09.670Z,0.80
2019-02-16T09:59:57.950Z,0.80
2019-02-16T10:02:56.077Z,0.80
2019-02-16T10:05:51.336Z,0.70
2019-02-16T10:08:29.229Z,0.70
2019-02-16T10:11:21.609Z,0.80
2019-02-16T10:14:19.190Z,0.70
2019-02-16T10:17:11.258Z,0.80
2019-02-16T10:20:03.246Z,0.70
2019-02-16T10:22:44.235Z,0.80
2019-02-16T10:25:26.839Z,0.80
2019-02-16T10:28:22.381Z,0.80
2019-02-16T10:31:10.679Z,0.70
2019-02-16T10:34:08.922Z,0.70
2019-02-16T10:36:56.811Z,0.80
2019-02-16T10:39:33.715Z,0.80
2019-02-16T10:42:22.886Z,0.70
2019-02-16T10:45:05.793Z,0.70
2019-02-16T10:48:01.105Z,0.70
2019-02-16T10:51:02.659Z,0.70
2019-02-16T10:53:57.958Z,0.70
2019-02-16T10:56:52.336Z,0.70
2019-02-16T10:59:31.143Z,0.70
2019-02-16T11:02:10.479Z,0.70
2019-02-16T11:05:03.709Z,0.70
2019-02-16T11:07:52.025Z,0.70
2019-02-16T11:10:27.515Z,0.60
2019-02-16T11:13:06.979Z,0.70
2019-02-16T11:16:02.411Z,0.70
2019-02-16T11:18:39.183Z,0.70
2019-02-16T11:21:27.354Z,0.70
2019-02-16T11:24:16.624Z,0.60
2019-02-16T11:27:05.814Z,0.60
2019-02-16T11:30:01.002Z,0.60
2019-02-16T11:32:50.257Z,0.67
2019-02-16T11:35:42.586Z,0.70
2019-02-16T11:38:31.213Z,0.60
2019-02-16T11:41:26.302Z,0.70
2019-02-16T11:44:18.582Z,0.70
2019-02-16T11:47:05.223Z,0.60
2019-02-16T11:50:03.729Z,0.60
2019-02-16T11:52:40.519Z,0.60
2019-02-16T11:55:20.281Z,0.60
2019-02-16T11:58:09.577Z,0.60
2019-02-16T12:00:58.809Z,0.60
2019-02-16T12:03:48.081Z,0.60
2019-02-16T12:06:26.217Z,0.60
2019-02-16T12:09:11.598Z,0.60
2019-02-16T12:11:48.262Z,0.60
2019-02-16T12:14:29.848Z,0.60
2019-02-16T12:17:08.269Z,0.60
2019-02-16T12:19:56.461Z,0.60
2019-02-16T12:22:42.509Z,0.60
2019-02-16T12:25:30.585Z,0.60
2019-02-16T12:28:06.934Z,0.60
2019-02-16T12:30:59.373Z,0.50
2019-02-16T12:33:44.650Z,0.50
2019-02-16T12:36:42.983Z,0.53
2019-02-16T12:39:38.067Z,0.60
2019-02-16T12:42:27.331Z,0.60
2019-02-16T12:45:15.255Z,0.57
2019-02-16T12:48:02.706Z,0.60
2019-02-16T12:50:55.037Z,0.60
2019-02-16T12:53:59.637Z,0.50
2019-02-16T12:56:48.868Z,0.50
2019-02-16T12:59:26.900Z,0.60
2019-02-16T13:02:19.300Z,0.50
2019-02-16T13:05:23.531Z,0.47
2019-02-16T13:08:15.583Z,0.40
2019-02-16T13:11:09.899Z,0.50
2019-02-16T13:13:45.252Z,0.40
2019-02-16T13:16:33.138Z,0.40
2019-02-16T13:19:40.600Z,0.50
2019-02-16T13:22:16.514Z,0.40
2019-02-16T13:25:01.375Z,0.50
2019-02-16T13:28:02.786Z,0.40
2019-02-16T13:30:49.583Z,0.40
2019-02-16T13:33:35.915Z,0.40
2019-02-16T13:36:24.415Z,0.40
2019-02-16T13:39:07.292Z,0.42
2019-02-16T13:41:44.947Z,0.42
2019-02-16T13:44:49.432Z,0.40
2019-02-16T13:47:26.695Z,0.42
2019-02-16T13:50:08.772Z,0.40
2019-02-16T13:52:55.304Z,0.40
2019-02-16T13:55:43.440Z,0.40
2019-02-16T13:58:32.737Z,0.40
2019-02-16T14:01:37.355Z,0.40
2019-02-16T14:04:24.394Z,0.40
2019-02-16T14:07:02.830Z,0.40
2019-02-16T14:10:01.141Z,0.42
2019-02-16T14:12:53.276Z,0.40
2019-02-16T14:15:31.653Z,0.40
2019-02-16T14:18:01.974Z,0.50
2019-02-16T14:20:32.283Z,0.45
2019-02-16T14:23:02.541Z,0.40
2019-02-16T14:25:43.795Z,0.40
2019-02-16T14:28:11.695Z,0.40
2019-02-16T14:30:42.074Z,0.40
2019-02-16T14:33:12.262Z,0.40
2019-02-16T14:35:42.565Z,0.50
2019-02-16T14:38:19.597Z,0.42
2019-02-16T14:40:50.060Z,0.50
2019-02-16T14:43:20.212Z,0.50
2019-02-16T14:45:50.551Z,0.50
2019-02-16T14:48:20.729Z,0.50
2019-02-16T14:50:50.922Z,0.50
2019-02-16T14:53:21.138Z,0.50
2019-02-16T14:55:54.165Z,0.50
2019-02-16T14:58:23.262Z,0.50
2019-02-16T15:00:53.573Z,0.50
2019-02-16T15:03:23.797Z,0.50
2019-02-16T15:05:53.979Z,0.50
2019-02-16T15:08:24.297Z,0.60
2019-02-16T15:10:54.618Z,0.50
2019-02-16T15:13:24.975Z,0.60
2019-02-16T15:15:55.201Z,0.57
2019-02-16T15:18:25.440Z,0.60
2019-02-16T15:20:55.690Z,0.60
2019-02-16T15:23:25.980Z,0.50
2019-02-16T15:26:01.029Z,0.60
2019-02-16T15:28:28.129Z,0.50
2019-02-16T15:30:58.305Z,0.60
2019-02-16T15:33:28.529Z,0.60
2019-02-16T15:35:58.837Z,0.60
2019-02-16T15:38:29.087Z,0.60
2019-02-16T15:40:59.337Z,0.50
2019-02-16T15:43:29.465Z,0.60
2019-02-16T15:45:59.771Z,0.60
2019-02-16T15:48:29.965Z,0.60
2019-02-16T15:51:00.227Z,0.60
2019-02-16T15:53:30.516Z,0.60
2019-02-16T15:56:09.843Z,0.60
2019-02-16T15:58:32.728Z,0.60
2019-02-16T16:01:03.186Z,0.50
2019-02-16T16:03:33.555Z,0.60
2019-02-16T16:06:03.756Z,0.60
2019-02-16T16:08:50.165Z,0.60
2019-02-16T16:11:41.203Z,0.60
2019-02-16T16:14:30.507Z,0.60
2019-02-16T16:17:19.805Z,0.60
2019-02-16T16:20:08.996Z,0.60
2019-02-16T16:22:57.234Z,0.60
2019-02-16T16:25:39.447Z,0.70
2019-02-16T16:28:46.775Z,0.70
2019-02-16T16:31:34.663Z,0.60
2019-02-16T16:34:21.687Z,0.60
2019-02-16T16:37:16.757Z,0.70
2019-02-16T16:40:04.665Z,0.60
2019-02-16T16:43:00.012Z,0.60
2019-02-16T16:45:46.421Z,0.60
2019-02-16T16:48:25.814Z,0.70
2019-02-16T16:51:13.605Z,0.60
2019-02-16T16:54:15.112Z,0.70
2019-02-16T16:57:16.330Z,0.60
2019-02-16T16:59:54.739Z,0.70
2019-02-16T17:02:35.289Z,0.70
2019-02-16T17:05:23.608Z,0.60
2019-02-16T17:08:12.889Z,0.70
2019-02-16T17:11:00.391Z,0.60
2019-02-16T17:13:36.644Z,0.70
2019-02-16T17:16:33.607Z,0.70
2019-02-16T17:19:24.364Z,0.70
2019-02-16T17:22:31.920Z,0.60
2019-02-16T17:25:25.764Z,0.70
2019-02-16T17:28:20.988Z,0.70
2019-02-16T17:31:07.927Z,0.67
2019-02-16T17:33:54.703Z,0.70
2019-02-16T17:36:42.683Z,0.60
2019-02-16T17:39:40.788Z,0.70
2019-02-16T17:42:32.857Z,0.70
2019-02-16T17:45:25.240Z,0.70
2019-02-16T17:48:17.314Z,0.60
2019-02-16T17:51:03.324Z,0.60
2019-02-16T17:54:08.720Z,0.70
2019-02-16T17:57:01.016Z,0.60
2019-02-16T17:59:40.089Z,0.70
2019-02-16T18:02:28.068Z,0.70
2019-02-16T18:05:07.082Z,0.70
2019-02-16T18:07:55.267Z,0.70
2019-02-16T18:10:55.010Z,0.70
2019-02-16T18:13:44.737Z,0.70
2019-02-16T18:16:25.240Z,0.70
2019-02-16T18:19:07.263Z,0.70
2019-02-16T18:21:48.345Z,0.70
2019-02-16T18:24:34.718Z,0.70
2019-02-16T18:27:39.396Z,0.70
2019-02-16T18:30:40.654Z,0.70
2019-02-16T18:33:32.741Z,0.70
2019-02-16T18:36:37.394Z,0.70
2019-02-16T18:39:28.198Z,0.70
2019-02-16T18:42:07.075Z,0.70
2019-02-16T18:44:54.621Z,0.70
2019-02-16T18:47:59.030Z,0.70
2019-02-16T18:50:51.131Z,0.80
2019-02-16T18:53:39.433Z,0.80
2019-02-16T18:56:19.496Z,0.70
2019-02-16T18:59:02.859Z,0.80
2019-02-16T19:01:44.803Z,0.70
2019-02-16T19:04:31.547Z,0.80
2019-02-16T19:07:20.822Z,0.80
2019-02-16T19:10:08.876Z,0.80
2019-02-16T19:12:57.548Z,0.70
2019-02-16T19:15:41.122Z,0.70
2019-02-16T19:18:21.811Z,0.70
2019-02-16T19:20:58.721Z,0.70
2019-02-16T19:24:03.174Z,0.77
2019-02-16T19:26:58.287Z,0.80
2019-02-16T19:30:05.672Z,0.70
2019-02-16T19:33:00.468Z,0.80
2019-02-16T19:35:55.406Z,0.80
2019-02-16T19:38:44.760Z,0.80
2019-02-16T19:41:24.889Z,0.70
2019-02-16T19:44:17.457Z,0.80
2019-02-16T19:47:15.949Z,0.70
2019-02-16T19:50:14.150Z,0.70
2019-02-16T19:53:15.812Z,0.80
2019-02-16T19:56:10.870Z,0.80
2019-02-16T19:58:53.390Z,0.80
2019-02-16T20:01:33.969Z,0.80
2019-02-16T20:04:26.706Z,0.70
2019-02-16T20:07:15.931Z,0.80
2019-02-16T20:10:01.210Z,0.80
2019-02-16T20:12:49.534Z,0.80
2019-02-16T20:15:44.860Z,0.80
2019-02-16T20:18:26.064Z,0.77
2019-02-16T20:21:33.518Z,0.80
2019-02-16T20:24:31.618Z,0.70
2019-02-16T20:27:20.867Z,0.80
2019-02-16T20:30:02.437Z,0.73
2019-02-16T20:32:51.693Z,0.70
2019-02-16T20:35:43.957Z,0.70
2019-02-16T20:38:48.271Z,0.70
2019-02-16T20:41:37.737Z,0.70
2019-02-16T20:44:29.777Z,0.70
2019-02-16T20:47:22.048Z,0.70
2019-02-16T20:50:17.026Z,0.80
2019-02-16T20:52:55.441Z,0.70
2019-02-16T20:55:42.736Z,0.80
2019-02-16T20:58:38.868Z,0.70
2019-02-16T21:01:26.933Z,0.80
2019-02-16T21:04:22.023Z,0.80
2019-02-16T21:07:14.319Z,0.80
2019-02-16T21:09:54.320Z,0.70
2019-02-16T21:12:49.866Z,0.70
2019-02-16T21:15:30.938Z,0.70
2019-02-16T21:18:25.940Z,0.80
2019-02-16T21:21:13.065Z,0.80
2019-02-16T21:24:05.067Z,0.80
2019-02-16T21:27:11.540Z,0.80
2019-02-16T21:30:12.885Z,0.80
2019-02-16T21:32:59.148Z,0.80
2019-02-16T21:35:46.954Z,0.80
2019-02-16T21:38:32.998Z,0.70
2019-02-16T21:41:25.270Z,0.80
2019-02-16T21:44:22.098Z,0.80
2019-02-16T21:47:11.345Z,0.80
2019-02-16T21:49:59.676Z,0.80
2019-02-16T21:52:47.535Z,0.80
2019-02-16T21:55:36.746Z,0.80
2019-02-16T21:58:23.039Z,0.77
2019-02-16T22:01:11.414Z,0.80
2019-02-16T22:04:06.746Z,0.70
2019-02-16T22:06:55.486Z,0.80
2019-02-16T22:09:53.972Z,0.80
2019-02-16T22:12:49.108Z,0.80
2019-02-16T22:15:19.483Z,0.80
2019-02-16T22:17:49.726Z,0.70
2019-02-16T22:20:20.004Z,0.80
2019-02-16T22:22:50.178Z,0.80
2019-02-16T22:25:21.410Z,0.80
2019-02-16T22:27:51.792Z,0.80
2019-02-16T22:30:22.158Z,0.80
2019-02-16T22:32:52.285Z,0.80
2019-02-16T22:35:22.490Z,0.80
2019-02-16T22:37:52.770Z,0.80
2019-02-16T22:40:23.016Z,0.80
2019-02-16T22:42:53.301Z,0.80
2019-02-16T22:45:23.474Z,0.80
2019-02-16T22:47:53.773Z,0.80
2019-02-16T22:50:23.991Z,0.80
2019-02-16T22:52:54.273Z,0.70
2019-02-16T22:55:24.486Z,0.80
2019-02-16T22:57:54.769Z,0.80
2019-02-16T23:00:44.171Z,0.80
2019-02-16T23:03:14.640Z,0.80
2019-02-16T23:05:44.943Z,0.80
2019-02-16T23:08:15.263Z,0.70
2019-02-16T23:10:45.479Z,0.80
2019-02-16T23:13:15.759Z,0.80
2019-02-16T23:15:46.051Z,0.80
2019-02-16T23:18:16.260Z,0.80
2019-02-16T23:20:47.815Z,0.80
2019-02-16T23:23:18.150Z,0.80
2019-02-16T23:25:48.433Z,0.80
2019-02-16T23:28:18.759Z,0.80
2019-02-16T23:30:48.981Z,0.80
2019-02-16T23:33:19.244Z,0.70
2019-02-16T23:35:49.563Z,0.80
2019-02-16T23:38:19.921Z,0.80
2019-02-16T23:40:50.126Z,0.80
2019-02-16T23:43:20.336Z,0.80
2019-02-16T23:45:50.477Z,0.80
2019-02-16T23:48:20.666Z,0.80
2019-02-16T23:50:51.336Z,0.80
2019-02-16T23:53:21.669Z,0.80
2019-02-16T23:55:51.871Z,0.80
2019-02-16T23:58:22.047Z,0.80
